createdAt,value
2018-10-09T00:00:55.892Z,9.93
2018-10-09T00:04:58.741Z,10.80
2018-10-09T00:09:01.650Z,10.50
2018-10-09T00:13:04.490Z,12.17
2018-10-09T00:17:07.603Z,10.73
2018-10-09T00:21:10.446Z,11.40
2018-10-09T00:25:13.570Z,14.07
2018-10-09T00:29:16.614Z,11.10
2018-10-09T00:33:19.718Z,11.53
2018-10-09T00:37:22.563Z,10.97
2018-10-09T00:41:25.626Z,11.23
2018-10-09T00:45:28.686Z,17.10
2018-10-09T00:49:31.709Z,12.30
2018-10-09T00:53:34.910Z,13.43
2018-10-09T00:57:37.829Z,13.13
2018-10-09T01:01:40.676Z,11.10
2018-10-09T01:05:43.568Z,19.40
2018-10-09T01:09:46.405Z,14.30
2018-10-09T01:13:49.306Z,12.47
2018-10-09T01:17:52.151Z,13.70
2018-10-09T01:21:55.046Z,11.43
2018-10-09T01:25:58.098Z,14.40
2018-10-09T01:30:01.205Z,12.90
2018-10-09T01:34:04.049Z,12.73
2018-10-09T01:38:07.165Z,11.83
2018-10-09T01:42:10.214Z,11.50
2018-10-09T01:46:13.102Z,12.33
2018-10-09T01:50:16.414Z,13.23
2018-10-09T01:54:19.311Z,13.47
2018-10-09T01:58:22.162Z,17.93
2018-10-09T02:02:25.118Z,16.13
2018-10-09T02:06:28.187Z,14.37
2018-10-09T02:10:31.097Z,12.63
2018-10-09T02:14:34.155Z,12.30
2018-10-09T02:18:37.254Z,14.67
2018-10-09T02:22:40.646Z,13.30
2018-10-09T02:26:43.678Z,16.93
2018-10-09T02:30:46.596Z,12.77
2018-10-09T02:34:49.482Z,12.07
2018-10-09T02:38:54.931Z,12.93
2018-10-09T02:42:57.773Z,11.10
2018-10-09T02:47:00.666Z,15.20
2018-10-09T02:51:03.514Z,14.73
2018-10-09T02:55:06.614Z,13.13
2018-10-09T02:59:09.450Z,15.17
2018-10-09T03:03:12.555Z,15.20
2018-10-09T03:07:15.610Z,13.33
2018-10-09T03:11:18.517Z,16.97
2018-10-09T03:15:21.449Z,12.60
2018-10-09T03:19:24.340Z,12.80
2018-10-09T03:23:27.514Z,12.70
2018-10-09T03:27:30.410Z,16.40
2018-10-09T03:31:33.254Z,14.13
2018-10-09T03:35:36.355Z,17.80
2018-10-09T03:39:39.202Z,19.43
2018-10-09T03:43:42.101Z,16.77
2018-10-09T03:47:45.158Z,15.60
2018-10-09T03:51:48.081Z,13.93
2018-10-09T03:55:50.925Z,14.43
2018-10-09T03:59:54.074Z,14.63
2018-10-09T04:03:57.230Z,15.03
2018-10-09T04:08:00.326Z,15.13
2018-10-09T04:12:03.162Z,17.17
2018-10-09T04:16:07.062Z,16.20
2018-10-09T04:20:10.106Z,14.87
2018-10-09T04:24:13.138Z,15.77
2018-10-09T04:28:16.190Z,16.83
2018-10-09T04:32:19.542Z,14.67
2018-10-09T04:36:22.394Z,16.37
2018-10-09T04:40:25.498Z,25.20
2018-10-09T04:44:28.338Z,20.73
2018-10-09T04:48:31.469Z,17.70
2018-10-09T04:52:34.520Z,17.27
2018-10-09T04:56:37.416Z,18.13
2018-10-09T05:00:40.341Z,16.67
2018-10-09T05:04:43.201Z,18.67
2018-10-09T05:08:46.306Z,20.90
2018-10-09T05:12:49.414Z,17.70
2018-10-09T05:16:52.261Z,19.30
2018-10-09T05:20:55.368Z,18.37
2018-10-09T05:24:58.214Z,25.23
2018-10-09T05:29:01.100Z,22.57
2018-10-09T05:33:04.166Z,18.30
2018-10-09T05:37:07.098Z,18.43
2018-10-09T05:41:10.154Z,21.63
2018-10-09T05:45:13.050Z,20.23
2018-10-09T05:49:16.009Z,19.17
2018-10-09T05:53:19.198Z,24.80
2018-10-09T05:57:22.258Z,19.30
2018-10-09T06:01:25.149Z,19.47
2018-10-09T06:05:28.197Z,21.20
2018-10-09T06:09:31.107Z,22.70
2018-10-09T06:13:34.158Z,20.10
2018-10-09T06:17:37.117Z,23.90
2018-10-09T06:21:39.954Z,20.57
2018-10-09T06:25:42.851Z,20.00
2018-10-09T06:29:45.918Z,21.23
2018-10-09T06:33:48.827Z,22.47
2018-10-09T06:37:51.655Z,24.23
2018-10-09T06:41:54.591Z,20.53
2018-10-09T06:45:58.036Z,23.50
2018-10-09T06:50:01.295Z,20.80
2018-10-09T06:54:04.248Z,21.20
2018-10-09T06:58:07.039Z,21.40
2018-10-09T07:02:09.990Z,26.80
2018-10-09T07:06:12.888Z,20.63
2018-10-09T07:10:15.943Z,24.50
2018-10-09T07:14:19.027Z,24.63
2018-10-09T07:18:22.150Z,21.40
2018-10-09T07:22:25.059Z,21.93
2018-10-09T07:26:27.903Z,20.13
2018-10-09T07:30:31.003Z,22.30
2018-10-09T07:34:33.855Z,20.07
2018-10-09T07:38:36.759Z,21.17
2018-10-09T07:42:39.615Z,24.67
2018-10-09T07:46:42.518Z,24.33
2018-10-09T07:50:45.688Z,23.77
2018-10-09T07:54:48.583Z,22.33
2018-10-09T07:58:51.447Z,19.70
2018-10-09T08:02:54.562Z,24.67
2018-10-09T08:06:57.411Z,21.30
2018-10-09T08:11:00.591Z,24.60
2018-10-09T08:15:03.587Z,22.60
2018-10-09T08:19:06.515Z,22.87
2018-10-09T08:23:09.580Z,26.23
2018-10-09T08:27:12.487Z,21.70
2018-10-09T08:31:15.339Z,25.63
2018-10-09T08:35:18.290Z,20.93
2018-10-09T08:39:21.170Z,22.97
2018-10-09T08:43:24.098Z,20.67
2018-10-09T08:47:26.955Z,23.70
2018-10-09T08:51:30.151Z,21.93
2018-10-09T08:55:33.218Z,21.37
2018-10-09T08:59:36.149Z,24.17
2018-10-09T09:03:39.213Z,21.10
2018-10-09T09:07:42.321Z,23.03
2018-10-09T09:11:45.166Z,31.00
2018-10-09T09:15:48.091Z,22.07
2018-10-09T09:19:50.935Z,22.10
2018-10-09T09:23:53.831Z,22.20
2018-10-09T09:27:56.692Z,22.27
2018-10-09T09:31:59.603Z,24.03
2018-10-09T09:36:02.667Z,24.23
2018-10-09T09:40:05.850Z,23.00
2018-10-09T09:44:08.699Z,23.63
2018-10-09T09:48:12.000Z,20.17
2018-10-09T09:52:15.038Z,25.43
2018-10-09T09:56:18.083Z,20.53
2018-10-09T10:00:26.663Z,25.23
2018-10-09T10:04:29.791Z,19.50
2018-10-09T10:08:32.650Z,20.23
2018-10-09T10:12:36.595Z,21.43
2018-10-09T10:16:39.458Z,23.23
2018-10-09T10:20:43.151Z,20.60
2018-10-09T10:24:46.004Z,20.70
2018-10-09T10:28:49.180Z,19.73
2018-10-09T10:32:52.063Z,20.23
2018-10-09T10:36:55.023Z,21.13
2018-10-09T10:40:58.083Z,20.03
2018-10-09T10:45:00.991Z,20.57
2018-10-09T10:49:04.974Z,23.13
2018-10-09T10:53:07.959Z,20.23
2018-10-09T10:57:10.827Z,20.63
2018-10-09T11:01:14.186Z,20.83
2018-10-09T11:05:17.203Z,22.20
2018-10-09T11:09:20.102Z,20.17
2018-10-09T11:13:23.163Z,24.40
2018-10-09T11:17:26.075Z,24.40
2018-10-09T11:21:28.979Z,21.60
2018-10-09T11:25:31.861Z,20.63
2018-10-09T11:29:34.918Z,21.43
2018-10-09T11:33:38.028Z,20.23
2018-10-09T11:37:40.935Z,22.60
2018-10-09T11:41:44.047Z,20.80
2018-10-09T11:45:46.974Z,22.07
2018-10-09T11:49:49.883Z,23.40
2018-10-09T11:53:53.076Z,22.50
2018-10-09T11:57:56.162Z,22.90
2018-10-09T12:01:59.066Z,22.50
2018-10-09T12:06:01.961Z,18.30
2018-10-09T12:10:04.826Z,19.90
2018-10-09T12:14:08.470Z,19.80
2018-10-09T12:18:11.535Z,20.60
2018-10-09T12:22:15.129Z,18.23
2018-10-09T12:26:17.969Z,18.30
2018-10-09T12:30:21.074Z,18.73
2018-10-09T12:34:23.929Z,20.90
2018-10-09T12:38:27.082Z,21.23
2018-10-09T12:42:29.988Z,19.43
2018-10-09T12:46:32.975Z,19.13
2018-10-09T12:50:36.035Z,17.40
2018-10-09T12:54:39.259Z,22.57
2018-10-09T12:58:42.242Z,20.10
2018-10-09T13:02:45.004Z,19.20
2018-10-09T13:06:48.062Z,18.63
2018-10-09T13:10:51.282Z,17.47
2018-10-09T13:14:54.334Z,18.13
2018-10-09T13:18:57.249Z,16.30
2018-10-09T13:23:00.119Z,18.77
2018-10-09T13:27:03.002Z,22.70
2018-10-09T13:31:05.866Z,15.60
2018-10-09T13:35:08.964Z,17.13
2018-10-09T13:39:11.803Z,19.90
2018-10-09T13:43:14.702Z,19.10
2018-10-09T13:47:17.826Z,17.80
2018-10-09T13:51:20.698Z,18.03
2018-10-09T13:55:23.952Z,19.07
2018-10-09T13:59:27.191Z,17.87
2018-10-09T14:03:30.043Z,18.47
2018-10-09T14:07:33.143Z,16.07
2018-10-09T14:11:36.199Z,17.20
2018-10-09T14:15:39.209Z,16.23
2018-10-09T14:19:42.050Z,16.23
2018-10-09T14:23:45.157Z,13.70
2018-10-09T14:27:48.008Z,15.73
2018-10-09T14:31:50.898Z,35.30
2018-10-09T14:35:53.984Z,22.40
2018-10-09T14:39:56.906Z,13.53
2018-10-09T14:43:59.839Z,12.37
2018-10-09T14:48:02.909Z,11.43
2018-10-09T14:52:05.783Z,12.37
2018-10-09T14:56:08.926Z,13.53
2018-10-09T15:00:12.191Z,15.27
2018-10-09T15:04:15.135Z,11.70
2018-10-09T15:08:17.984Z,12.17
2018-10-09T15:12:20.887Z,12.63
2018-10-09T15:16:23.956Z,13.17
2018-10-09T15:20:26.859Z,12.13
2018-10-09T15:24:29.927Z,10.43
2018-10-09T15:28:33.146Z,9.47
2018-10-09T15:32:36.015Z,16.23
2018-10-09T15:36:39.107Z,11.87
2018-10-09T15:40:42.287Z,11.77
2018-10-09T15:44:45.191Z,10.87
2018-10-09T15:48:48.036Z,13.40
2018-10-09T15:52:51.277Z,11.60
2018-10-09T15:56:54.202Z,11.03
2018-10-09T16:00:57.092Z,10.53
2018-10-09T16:05:00.151Z,11.20
2018-10-09T16:09:03.999Z,10.60
2018-10-09T16:13:07.046Z,11.03
2018-10-09T16:17:09.958Z,11.27
2018-10-09T16:21:13.011Z,11.90
2018-10-09T16:25:15.912Z,12.13
2018-10-09T16:29:18.784Z,12.53
2018-10-09T16:33:21.681Z,12.60
2018-10-09T16:37:24.530Z,15.50
2018-10-09T16:41:27.633Z,12.30
2018-10-09T16:45:30.475Z,14.20
2018-10-09T16:49:34.672Z,14.10
2018-10-09T16:53:37.532Z,13.30
2018-10-09T16:57:41.439Z,14.27
2018-10-09T17:01:44.298Z,17.07
2018-10-09T17:05:47.458Z,14.97
2018-10-09T17:09:50.305Z,15.10
2018-10-09T17:13:53.216Z,12.93
2018-10-09T17:17:56.082Z,12.90
2018-10-09T17:21:59.175Z,14.77
2018-10-09T17:26:02.195Z,12.60
2018-10-09T17:30:05.923Z,15.63
2018-10-09T17:34:08.763Z,13.37
2018-10-09T17:38:11.975Z,13.00
2018-10-09T17:42:15.111Z,12.07
2018-10-09T17:46:17.990Z,12.10
2018-10-09T17:50:21.012Z,13.30
2018-10-09T17:54:23.924Z,12.97
2018-10-09T17:58:26.767Z,13.53
2018-10-09T18:02:29.871Z,13.60
2018-10-09T18:06:32.735Z,14.60
2018-10-09T18:10:35.851Z,12.67
2018-10-09T18:14:38.759Z,19.10
2018-10-09T18:18:41.593Z,19.33
2018-10-09T18:22:44.919Z,19.53
2018-10-09T18:26:47.974Z,15.13
2018-10-09T18:30:51.033Z,17.30
2018-10-09T18:34:54.093Z,16.70
2018-10-09T18:38:56.950Z,22.00
2018-10-09T18:42:59.843Z,24.37
2018-10-09T18:47:03.107Z,18.73
2018-10-09T18:51:06.238Z,17.23
2018-10-09T18:55:10.111Z,17.23
2018-10-09T18:59:13.154Z,17.20
2018-10-09T19:03:16.230Z,16.30
2018-10-09T19:07:19.419Z,15.20
2018-10-09T19:11:25.555Z,18.27
2018-10-09T19:15:28.467Z,18.17
2018-10-09T19:19:31.314Z,16.90
2018-10-09T19:23:34.230Z,14.27
2018-10-09T19:27:37.100Z,28.67
2018-10-09T19:31:40.030Z,35.83
2018-10-09T19:35:44.027Z,41.50
2018-10-09T19:39:46.956Z,47.07
2018-10-09T19:43:49.778Z,48.33
2018-10-09T19:47:52.688Z,37.33
2018-10-09T19:51:55.546Z,29.07
2018-10-09T19:55:58.695Z,25.90
2018-10-09T20:00:01.543Z,22.37
2018-10-09T20:04:04.476Z,23.27
2018-10-09T20:08:07.455Z,20.67
2018-10-09T20:12:10.370Z,18.80
2018-10-09T20:16:13.247Z,19.27
2018-10-09T20:20:16.142Z,22.53
2018-10-09T20:24:19.043Z,20.93
2018-10-09T20:28:22.107Z,18.00
2018-10-09T20:32:24.962Z,17.07
2018-10-09T20:36:28.091Z,17.03
2018-10-09T20:40:31.067Z,18.40
2018-10-09T20:44:34.043Z,17.37
2018-10-09T20:48:36.895Z,17.83
2018-10-09T20:52:39.823Z,20.20
2018-10-09T20:56:42.874Z,20.03
2018-10-09T21:00:45.795Z,21.37
2018-10-09T21:04:48.722Z,30.03
2018-10-09T21:08:51.740Z,21.63
2018-10-09T21:12:54.582Z,26.97
2018-10-09T21:16:57.495Z,25.13
2018-10-09T21:21:00.572Z,29.93
2018-10-09T21:25:03.471Z,21.43
2018-10-09T21:29:06.329Z,23.47
2018-10-09T21:33:09.439Z,21.67
2018-10-09T21:37:12.290Z,28.20
2018-10-09T21:41:15.298Z,23.67
2018-10-09T21:45:18.318Z,24.77
2018-10-09T21:49:21.226Z,22.73
2018-10-09T21:53:24.080Z,27.13
2018-10-09T21:57:26.990Z,23.33
2018-10-09T22:01:30.043Z,24.03
2018-10-09T22:05:33.291Z,23.03
2018-10-09T22:09:36.358Z,22.60
2018-10-09T22:13:39.467Z,26.37
2018-10-09T22:17:42.314Z,25.83
2018-10-09T22:21:45.223Z,25.90
2018-10-09T22:25:48.070Z,27.57
2018-10-09T22:29:51.491Z,29.87
2018-10-09T22:33:54.347Z,26.60
2018-10-09T22:37:57.448Z,29.70
2018-10-09T22:42:00.515Z,28.00
2018-10-09T22:46:03.418Z,32.33
2018-10-09T22:50:06.259Z,30.67
2018-10-09T22:54:09.151Z,23.90
2018-10-09T22:58:11.999Z,24.90
2018-10-09T23:02:14.899Z,24.20
2018-10-09T23:06:17.742Z,29.60
2018-10-09T23:10:20.962Z,29.53
2018-10-09T23:14:23.806Z,25.10
2018-10-09T23:18:26.789Z,28.13
2018-10-09T23:22:29.847Z,28.30
2018-10-09T23:26:32.846Z,24.07
2018-10-09T23:30:36.205Z,27.87
2018-10-09T23:34:39.271Z,25.20
2018-10-09T23:38:42.134Z,25.60
2018-10-09T23:42:45.415Z,19.27
2018-10-09T23:46:48.403Z,20.27
2018-10-09T23:50:51.295Z,23.33
2018-10-09T23:54:54.146Z,23.67
2018-10-09T23:58:57.271Z,25.33
